createdAt,value
2023-05-04T00:02:26.307Z,102492.09
2023-05-04T00:04:52.993Z,102493.16
2023-05-04T00:07:19.896Z,102484.22
2023-05-04T00:09:46.512Z,102481.63
2023-05-04T00:12:12.907Z,102490.16
2023-05-04T00:14:39.239Z,102485.16
2023-05-04T00:17:06.679Z,102486.03
2023-05-04T00:19:36.668Z,102479.06
2023-05-04T00:22:03.121Z,102469.66
2023-05-04T00:24:29.505Z,102470.78
2023-05-04T00:26:55.936Z,102464.47
2023-05-04T00:29:22.261Z,102471.59
2023-05-04T00:31:48.693Z,102461.00
2023-05-04T00:34:15.622Z,102461.91
2023-05-04T00:36:45.035Z,102457.09
2023-05-04T00:39:11.368Z,102450.69
2023-05-04T00:41:37.750Z,102454.16
2023-05-04T00:44:04.471Z,102439.72
2023-05-04T00:46:31.803Z,102448.84
2023-05-04T00:48:59.671Z,102441.03
2023-05-04T00:51:27.048Z,102441.97
2023-05-04T00:53:57.106Z,102450.13
2023-05-04T00:56:24.473Z,102438.06
2023-05-04T00:58:54.325Z,102441.41
2023-05-04T01:01:22.620Z,102440.88
2023-05-04T01:03:53.600Z,102441.72
2023-05-04T01:06:43.471Z,102436.00
2023-05-04T01:09:22.153Z,102427.66
2023-05-04T01:12:00.862Z,102430.72
2023-05-04T01:14:28.610Z,102426.16
2023-05-04T01:16:57.931Z,102428.50
2023-05-04T01:19:25.008Z,102421.78
2023-05-04T01:21:51.546Z,102426.16
2023-05-04T01:24:18.045Z,102421.50
2023-05-04T01:26:46.852Z,102426.06
2023-05-04T01:29:17.964Z,102425.44
2023-05-04T01:31:46.456Z,102434.63
2023-05-04T01:34:13.913Z,102423.94
2023-05-04T01:36:41.392Z,102424.47
2023-05-04T01:39:08.361Z,102429.34
2023-05-04T01:41:34.706Z,102421.50
2023-05-04T01:44:01.138Z,102422.47
2023-05-04T01:46:27.580Z,102424.13
2023-05-04T01:48:54.221Z,102426.38
2023-05-04T01:51:20.760Z,102423.41
2023-05-04T01:53:47.153Z,102433.94
2023-05-04T01:56:13.830Z,102423.16
2023-05-04T01:58:40.285Z,102416.03
2023-05-04T02:01:06.687Z,102417.31
2023-05-04T02:03:33.185Z,102418.75
2023-05-04T02:05:59.622Z,102417.41
2023-05-04T02:08:26.696Z,102406.94
2023-05-04T02:10:53.055Z,102404.75
2023-05-04T02:13:19.600Z,102403.47
2023-05-04T02:15:46.026Z,102405.34
2023-05-04T02:18:12.540Z,102398.09
2023-05-04T02:20:38.894Z,102398.63
2023-05-04T02:23:05.740Z,102390.66
2023-05-04T02:25:32.117Z,102396.16
2023-05-04T02:27:58.466Z,102393.47
2023-05-04T02:30:24.832Z,102386.84
2023-05-04T02:32:51.227Z,102390.19
2023-05-04T02:35:17.779Z,102392.09
2023-05-04T02:37:44.104Z,102385.13
2023-05-04T02:40:11.496Z,102382.44
2023-05-04T02:42:37.831Z,102375.03
2023-05-04T02:45:04.691Z,102379.56
2023-05-04T02:47:31.287Z,102385.88
2023-05-04T02:49:57.636Z,102379.38
2023-05-04T02:52:24.030Z,102367.84
2023-05-04T02:54:52.359Z,102375.91
2023-05-04T02:57:19.451Z,102367.28
2023-05-04T02:59:46.716Z,102363.09
2023-05-04T03:02:13.194Z,102362.34
2023-05-04T03:04:39.613Z,102373.28
2023-05-04T03:07:06.614Z,102370.13
2023-05-04T03:09:33.009Z,102370.41
2023-05-04T03:11:59.375Z,102368.28
2023-05-04T03:14:26.377Z,102378.84
2023-05-04T03:16:52.879Z,102366.78
2023-05-04T03:19:19.939Z,102368.63
2023-05-04T03:21:46.441Z,102360.00
2023-05-04T03:24:13.045Z,102359.84
2023-05-04T03:26:39.435Z,102363.13
2023-05-04T03:29:05.866Z,102360.63
2023-05-04T03:31:32.310Z,102356.19
2023-05-04T03:33:58.734Z,102347.16
2023-05-04T03:36:25.414Z,102356.59
2023-05-04T03:38:51.783Z,102341.59
2023-05-04T03:41:18.111Z,102351.59
2023-05-04T03:43:44.409Z,102345.00
2023-05-04T03:46:11.514Z,102344.16
2023-05-04T03:48:37.906Z,102336.75
2023-05-04T03:51:04.578Z,102337.34
2023-05-04T03:53:31.009Z,102332.16
2023-05-04T03:55:57.403Z,102333.19
2023-05-04T03:58:23.779Z,102329.78
2023-05-04T04:00:50.160Z,102332.47
2023-05-04T04:03:17.026Z,102340.03
2023-05-04T04:05:44.243Z,102335.16
2023-05-04T04:08:10.986Z,102328.22
2023-05-04T04:10:37.327Z,102333.00
2023-05-04T04:13:03.736Z,102335.03
2023-05-04T04:15:30.090Z,102329.91
2023-05-04T04:17:56.468Z,102330.47
2023-05-04T04:20:22.886Z,102336.72
2023-05-04T04:22:49.652Z,102322.41
2023-05-04T04:25:16.016Z,102328.75
2023-05-04T04:27:42.349Z,102327.19
2023-05-04T04:30:09.107Z,102329.91
2023-05-04T04:32:36.011Z,102326.00
2023-05-04T04:35:02.411Z,102323.75
2023-05-04T04:37:28.953Z,102320.19
2023-05-04T04:39:55.417Z,102323.22
2023-05-04T04:42:21.805Z,102318.84
2023-05-04T04:44:49.399Z,102326.94
2023-05-04T04:47:16.640Z,102329.81
2023-05-04T04:49:43.467Z,102325.75
2023-05-04T04:52:11.370Z,102317.13
2023-05-04T04:54:38.736Z,102317.25
2023-05-04T04:57:06.092Z,102318.91
2023-05-04T04:59:32.484Z,102322.81
2023-05-04T05:01:59.233Z,102321.06
2023-05-04T05:04:25.672Z,102323.19
2023-05-04T05:06:54.205Z,102319.94
2023-05-04T05:09:20.709Z,102308.69
2023-05-04T05:11:47.143Z,102308.34
2023-05-04T05:14:13.590Z,102316.59
2023-05-04T05:16:39.990Z,102308.88
2023-05-04T05:19:06.701Z,102306.19
2023-05-04T05:21:33.154Z,102309.34
2023-05-04T05:23:59.543Z,102311.38
2023-05-04T05:26:25.961Z,102306.06
2023-05-04T05:28:52.641Z,102309.59
2023-05-04T05:31:19.124Z,102302.66
2023-05-04T05:33:45.525Z,102304.69
2023-05-04T05:36:11.907Z,102306.41
2023-05-04T05:38:38.447Z,102310.41
2023-05-04T05:41:04.920Z,102302.84
2023-05-04T05:43:33.316Z,102300.94
2023-05-04T05:45:59.762Z,102294.25
2023-05-04T05:48:26.219Z,102302.28
2023-05-04T05:50:52.642Z,102294.91
2023-05-04T05:53:19.040Z,102294.91
2023-05-04T05:55:46.527Z,102308.66
2023-05-04T05:58:13.473Z,102285.75
2023-05-04T06:00:39.905Z,102282.72
2023-05-04T06:03:06.430Z,102279.09
2023-05-04T06:05:34.210Z,102278.50
2023-05-04T06:08:00.774Z,102285.72
2023-05-04T06:10:27.176Z,102277.69
2023-05-04T06:12:53.601Z,102280.16
2023-05-04T06:15:19.979Z,102276.75
2023-05-04T06:17:46.342Z,102280.69
2023-05-04T06:20:13.020Z,102278.00
2023-05-04T06:22:39.388Z,102274.81
2023-05-04T06:25:07.877Z,102272.81
2023-05-04T06:27:34.762Z,102276.44
2023-05-04T06:30:01.197Z,102274.31
2023-05-04T06:32:27.774Z,102269.97
2023-05-04T06:34:59.306Z,102265.56
2023-05-04T06:37:26.363Z,102260.38
2023-05-04T06:39:52.737Z,102265.59
2023-05-04T06:42:19.117Z,102259.69
2023-05-04T06:44:45.699Z,102256.09
2023-05-04T06:47:12.403Z,102255.06
2023-05-04T06:49:38.789Z,102263.56
2023-05-04T06:52:05.504Z,102257.78
2023-05-04T06:54:32.439Z,102258.72
2023-05-04T06:56:58.860Z,102252.97
2023-05-04T06:59:25.365Z,102251.69
2023-05-04T07:01:51.689Z,102247.31
2023-05-04T07:04:21.662Z,102247.81
2023-05-04T07:06:48.015Z,102239.53
2023-05-04T07:09:14.416Z,102243.00
2023-05-04T07:11:40.753Z,102231.78
2023-05-04T07:14:09.745Z,102238.00
2023-05-04T07:16:37.190Z,102233.94
2023-05-04T07:19:04.728Z,102230.47
2023-05-04T07:21:31.596Z,102231.09
2023-05-04T07:23:58.089Z,102220.34
2023-05-04T07:26:24.648Z,102222.94
2023-05-04T07:28:51.047Z,102217.53
2023-05-04T07:31:17.433Z,102214.41
2023-05-04T07:33:43.976Z,102209.69
2023-05-04T07:36:10.398Z,102205.97
2023-05-04T07:38:36.750Z,102205.09
2023-05-04T07:41:03.131Z,102204.56
2023-05-04T07:43:29.639Z,102213.88
2023-05-04T07:45:56.016Z,102209.28
2023-05-04T07:48:23.431Z,102210.59
2023-05-04T07:50:52.182Z,102213.94
2023-05-04T07:53:20.704Z,102204.00
2023-05-04T07:55:48.335Z,102201.53
2023-05-04T07:58:16.376Z,102202.38
2023-05-04T08:00:42.823Z,102202.78
2023-05-04T08:03:09.280Z,102195.59
2023-05-04T08:05:35.733Z,102188.84
2023-05-04T08:08:02.152Z,102193.97
2023-05-04T08:10:29.134Z,102179.53
2023-05-04T08:12:55.609Z,102172.53
2023-05-04T08:15:22.205Z,102176.59
2023-05-04T08:17:48.729Z,102175.56
2023-05-04T08:20:15.274Z,102170.25
2023-05-04T08:22:41.854Z,102169.41
2023-05-04T08:25:09.441Z,102170.63
2023-05-04T08:27:35.803Z,102162.25
2023-05-04T08:30:02.246Z,102162.78
2023-05-04T08:32:29.980Z,102159.47
2023-05-04T08:34:57.369Z,102157.75
2023-05-04T08:37:23.887Z,102148.88
2023-05-04T08:39:50.331Z,102142.78
2023-05-04T08:42:31.188Z,102143.22
2023-05-04T08:44:59.068Z,102136.41
2023-05-04T08:47:26.749Z,102137.78
2023-05-04T08:49:56.939Z,102144.78
2023-05-04T08:52:25.428Z,102131.94
2023-05-04T08:54:57.113Z,102129.50
2023-05-04T08:57:24.633Z,102124.44
2023-05-04T08:59:53.472Z,102118.47
2023-05-04T09:02:23.831Z,102120.19
2023-05-04T09:04:51.669Z,102118.84
2023-05-04T09:07:19.294Z,102118.28
2023-05-04T09:09:47.086Z,102118.84
2023-05-04T09:12:13.593Z,102115.81
2023-05-04T09:14:41.582Z,102112.22
2023-05-04T09:17:18.029Z,102105.00
2023-05-04T09:19:44.602Z,102098.66
2023-05-04T09:22:15.732Z,102094.00
2023-05-04T09:24:42.118Z,102093.44
2023-05-04T09:27:13.700Z,102091.22
2023-05-04T09:29:42.284Z,102091.13
2023-05-04T09:32:14.515Z,102079.88
2023-05-04T09:34:51.432Z,102078.00
2023-05-04T09:37:20.748Z,102087.50
2023-05-04T09:39:55.744Z,102080.97
2023-05-04T09:42:23.737Z,102083.34
2023-05-04T09:45:00.003Z,102081.19
2023-05-04T09:47:40.134Z,102081.75
2023-05-04T09:50:14.621Z,102076.66
2023-05-04T09:52:43.341Z,102065.75
2023-05-04T09:55:14.929Z,102069.84
2023-05-04T09:57:43.038Z,102057.16
2023-05-04T10:00:11.547Z,102061.56
2023-05-04T10:02:38.133Z,102050.13
2023-05-04T10:05:07.795Z,102052.44
2023-05-04T10:07:35.109Z,102038.56
2023-05-04T10:10:01.600Z,102035.59
2023-05-04T10:12:28.167Z,102033.03
2023-05-04T10:14:54.760Z,102038.28
2023-05-04T10:17:48.802Z,102025.41
2023-05-04T10:20:28.280Z,102019.75
2023-05-04T10:23:12.107Z,102023.22
2023-05-04T10:25:45.516Z,102017.34
2023-05-04T10:28:23.867Z,102012.44
2023-05-04T10:30:57.048Z,102009.97
2023-05-04T10:33:23.804Z,101991.47
2023-05-04T10:35:53.900Z,102003.69
2023-05-04T10:38:31.912Z,102001.94
2023-05-04T10:40:58.241Z,101997.09
2023-05-04T10:43:24.691Z,101991.22
2023-05-04T10:45:51.534Z,101973.59
2023-05-04T10:48:17.971Z,101980.81
2023-05-04T10:50:50.414Z,101969.94
2023-05-04T10:53:18.259Z,101965.53
2023-05-04T10:55:48.599Z,101960.13
2023-05-04T10:58:21.357Z,101962.53
2023-05-04T11:00:48.353Z,101954.06
2023-05-04T11:03:15.315Z,101943.84
2023-05-04T11:05:43.112Z,101943.44
2023-05-04T11:08:24.263Z,101936.53
2023-05-04T11:11:02.437Z,101928.84
2023-05-04T11:13:40.645Z,101927.94
2023-05-04T11:16:07.353Z,101914.56
2023-05-04T11:18:34.566Z,101918.53
2023-05-04T11:21:01.472Z,101914.22
2023-05-04T11:23:28.255Z,101915.31
2023-05-04T11:25:54.896Z,101909.13
2023-05-04T11:28:37.498Z,101898.53
2023-05-04T11:31:33.250Z,101896.00
2023-05-04T11:33:59.701Z,101897.88
2023-05-04T11:36:26.867Z,101882.59
2023-05-04T11:38:56.309Z,101893.41
2023-05-04T11:41:26.107Z,101882.75
2023-05-04T11:43:53.072Z,101881.38
2023-05-04T11:46:19.997Z,101872.41
2023-05-04T11:48:47.388Z,101880.25
2023-05-04T11:51:13.942Z,101871.22
2023-05-04T11:53:41.147Z,101862.72
2023-05-04T11:56:08.982Z,101862.78
2023-05-04T11:58:36.059Z,101854.13
2023-05-04T12:01:03.605Z,101851.91
2023-05-04T12:06:04.263Z,101852.22
2023-05-04T12:08:36.279Z,101859.50
2023-05-04T12:11:10.156Z,101854.78
2023-05-04T12:13:36.803Z,101849.06
2023-05-04T12:16:18.105Z,101843.78
2023-05-04T12:18:46.084Z,101853.91
2023-05-04T12:21:19.324Z,101847.41
2023-05-04T12:23:47.397Z,101844.16
2023-05-04T12:26:15.029Z,101845.28
2023-05-04T12:28:43.057Z,101834.25
2023-05-04T12:31:10.179Z,101840.38
2023-05-04T12:33:36.683Z,101847.06
2023-05-04T12:36:05.855Z,101836.97
2023-05-04T12:38:32.232Z,101827.88
2023-05-04T12:41:00.843Z,101822.41
2023-05-04T12:43:27.243Z,101818.16
2023-05-04T12:45:53.887Z,101830.91
2023-05-04T12:48:21.115Z,101804.25
2023-05-04T12:50:49.113Z,101808.50
2023-05-04T12:53:16.026Z,101804.44
2023-05-04T12:55:42.865Z,101791.34
2023-05-04T12:58:09.698Z,101783.22
2023-05-04T13:00:37.683Z,101786.53
2023-05-04T13:03:05.225Z,101787.59
2023-05-04T13:05:31.773Z,101772.41
2023-05-04T13:07:58.223Z,101765.44
2023-05-04T13:10:25.028Z,101769.56
2023-05-04T13:12:51.804Z,101769.59
2023-05-04T13:15:18.442Z,101768.75
2023-05-04T13:17:45.018Z,101765.63
2023-05-04T13:20:11.974Z,101754.25
2023-05-04T13:22:39.098Z,101748.50
2023-05-04T13:25:06.447Z,101742.75
2023-05-04T13:27:33.352Z,101749.97
2023-05-04T13:30:02.883Z,101732.41
2023-05-04T13:32:30.738Z,101735.31
2023-05-04T13:34:57.369Z,101728.44
2023-05-04T13:37:23.739Z,101727.50
2023-05-04T13:39:50.677Z,101719.69
2023-05-04T13:42:17.909Z,101718.53
2023-05-04T13:44:47.476Z,101706.53
2023-05-04T13:47:15.200Z,101713.34
2023-05-04T13:49:41.835Z,101705.97
2023-05-04T13:52:08.542Z,101698.56
2023-05-04T13:54:35.743Z,101697.09
2023-05-04T13:57:02.143Z,101691.50
2023-05-04T13:59:29.365Z,101680.53
2023-05-04T14:01:56.386Z,101683.81
2023-05-04T14:04:23.392Z,101676.44
2023-05-04T14:06:50.697Z,101672.53
2023-05-04T14:09:18.376Z,101672.38
2023-05-04T14:11:46.216Z,101673.88
2023-05-04T14:14:12.610Z,101664.78
2023-05-04T14:16:39.132Z,101650.88
2023-05-04T14:19:05.593Z,101640.84
2023-05-04T14:21:32.049Z,101645.00
2023-05-04T14:23:58.447Z,101641.38
2023-05-04T14:26:24.840Z,101639.13
2023-05-04T14:28:51.221Z,101629.41
2023-05-04T14:31:17.676Z,101626.03
2023-05-04T14:33:44.243Z,101627.09
2023-05-04T14:36:10.910Z,101623.94
2023-05-04T14:38:37.529Z,101617.91
2023-05-04T14:41:10.234Z,101616.81
2023-05-04T14:43:38.241Z,101618.03
2023-05-04T14:46:05.390Z,101612.56
2023-05-04T14:48:34.663Z,101612.34
2023-05-04T14:51:01.138Z,101613.22
2023-05-04T14:53:29.186Z,101606.88
2023-05-04T14:55:55.528Z,101614.47
2023-05-04T14:58:21.990Z,101606.09
2023-05-04T15:00:48.316Z,101610.31
2023-05-04T15:03:14.751Z,101600.63
2023-05-04T15:05:41.152Z,101603.66
2023-05-04T15:08:07.489Z,101598.88
2023-05-04T15:10:33.949Z,101596.28
2023-05-04T15:13:00.671Z,101585.75
2023-05-04T15:15:27.102Z,101583.88
2023-05-04T15:17:53.617Z,101590.72
2023-05-04T15:20:20.026Z,101582.91
2023-05-04T15:22:52.180Z,101584.97
2023-05-04T15:25:23.200Z,101589.56
2023-05-04T15:27:49.621Z,101578.22
2023-05-04T15:30:16.509Z,101577.59
2023-05-04T15:32:42.902Z,101573.47
2023-05-04T15:35:09.482Z,101576.69
2023-05-04T15:37:35.850Z,101576.91
2023-05-04T15:40:04.564Z,101590.56
2023-05-04T15:42:31.316Z,101584.78
2023-05-04T15:44:58.735Z,101569.72
2023-05-04T15:47:25.483Z,101562.91
2023-05-04T15:49:52.418Z,101560.53
2023-05-04T15:52:27.351Z,101562.94
2023-05-04T15:54:55.418Z,101561.56
2023-05-04T15:57:21.943Z,101565.91
2023-05-04T15:59:49.488Z,101568.50
2023-05-04T16:02:16.485Z,101553.63
2023-05-04T16:04:42.804Z,101552.47
2023-05-04T16:07:09.242Z,101558.59
2023-05-04T16:09:35.946Z,101550.81
2023-05-04T16:12:05.098Z,101553.53
2023-05-04T16:14:31.868Z,101543.94
2023-05-04T16:17:01.574Z,101546.28
2023-05-04T16:19:28.391Z,101544.94
2023-05-04T16:21:54.779Z,101536.13
2023-05-04T16:24:21.385Z,101529.59
2023-05-04T16:26:49.864Z,101517.22
2023-05-04T16:29:16.304Z,101519.47
2023-05-04T16:31:42.622Z,101521.63
2023-05-04T16:34:09.019Z,101525.22
2023-05-04T16:36:35.997Z,101521.63
2023-05-04T16:39:02.316Z,101512.81
2023-05-04T16:41:30.656Z,101509.38
2023-05-04T16:43:57.012Z,101514.09
2023-05-04T16:46:23.459Z,101504.47
2023-05-04T16:48:50.287Z,101509.84
2023-05-04T16:51:16.631Z,101507.25
2023-05-04T16:53:42.977Z,101513.94
2023-05-04T16:56:16.693Z,101506.84
2023-05-04T16:58:43.064Z,101499.94
2023-05-04T17:01:11.051Z,101503.97
2023-05-04T17:03:37.950Z,101503.16
2023-05-04T17:06:04.553Z,101500.69
2023-05-04T17:08:30.927Z,101493.97
2023-05-04T17:11:00.418Z,101491.88
2023-05-04T17:13:26.926Z,101488.50
2023-05-04T17:15:53.369Z,101490.91
2023-05-04T17:18:19.811Z,101493.41
2023-05-04T17:20:46.573Z,101498.75
2023-05-04T17:23:12.885Z,101491.44
2023-05-04T17:25:39.557Z,101499.66
2023-05-04T17:28:05.906Z,101499.91
2023-05-04T17:30:34.808Z,101504.09
2023-05-04T17:33:01.668Z,101507.81
2023-05-04T17:35:28.034Z,101506.53
2023-05-04T17:37:58.544Z,101514.94
2023-05-04T17:40:26.994Z,101520.78
2023-05-04T17:42:53.439Z,101512.38
2023-05-04T17:45:19.897Z,101514.13
2023-05-04T17:47:46.462Z,101520.28
2023-05-04T17:50:12.940Z,101522.19
2023-05-04T17:52:39.309Z,101519.94
2023-05-04T17:55:06.076Z,101517.41
2023-05-04T17:57:32.583Z,101525.16
2023-05-04T17:59:59.782Z,101525.25
2023-05-04T18:02:26.205Z,101516.47
2023-05-04T18:04:52.718Z,101522.97
2023-05-04T18:07:19.139Z,101520.13
2023-05-04T18:09:45.612Z,101520.22
2023-05-04T18:12:11.970Z,101522.47
2023-05-04T18:14:38.353Z,101516.41
2023-05-04T18:17:04.886Z,101518.94
2023-05-04T18:19:34.245Z,101523.94
2023-05-04T18:22:00.926Z,101531.75
2023-05-04T18:24:27.320Z,101531.03
2023-05-04T18:26:54.443Z,101542.28
2023-05-04T18:29:21.102Z,101539.63
2023-05-04T18:31:47.706Z,101543.47
2023-05-04T18:34:14.121Z,101541.31
2023-05-04T18:36:40.556Z,101548.19
2023-05-04T18:39:08.284Z,101545.88
2023-05-04T18:41:34.988Z,101550.56
2023-05-04T18:44:01.477Z,101553.31
2023-05-04T18:46:27.934Z,101554.03
2023-05-04T18:48:55.981Z,101558.53
2023-05-04T18:51:22.304Z,101555.34
2023-05-04T18:53:50.044Z,101554.06
2023-05-04T18:56:16.513Z,101559.63
2023-05-04T18:58:43.001Z,101560.00
2023-05-04T19:01:09.463Z,101552.09
2023-05-04T19:03:35.953Z,101552.50
2023-05-04T19:06:02.372Z,101547.19
2023-05-04T19:08:28.728Z,101553.47
2023-05-04T19:10:59.066Z,101549.31
2023-05-04T19:13:25.379Z,101538.16
2023-05-04T19:15:51.836Z,101540.69
2023-05-04T19:18:18.215Z,101542.44
2023-05-04T19:20:45.315Z,101538.03
2023-05-04T19:23:11.644Z,101537.84
2023-05-04T19:25:37.971Z,101541.50
2023-05-04T19:28:08.585Z,101538.25
2023-05-04T19:30:39.192Z,101546.03
2023-05-04T19:33:06.720Z,101544.44
2023-05-04T19:35:33.439Z,101542.31
2023-05-04T19:38:01.467Z,101544.50
2023-05-04T19:40:27.852Z,101542.09
2023-05-04T19:42:54.165Z,101544.09
2023-05-04T19:45:20.618Z,101542.50
2023-05-04T19:47:48.294Z,101539.81
2023-05-04T19:50:16.288Z,101542.84
2023-05-04T19:52:42.917Z,101533.84
2023-05-04T19:55:09.675Z,101532.25
2023-05-04T19:57:36.601Z,101529.50
2023-05-04T20:00:04.651Z,101528.94
2023-05-04T20:02:32.297Z,101527.34
2023-05-04T20:04:58.734Z,101524.94
2023-05-04T20:07:25.301Z,101532.88
2023-05-04T20:09:51.657Z,101526.56
2023-05-04T20:12:18.125Z,101528.53
2023-05-04T20:14:44.530Z,101525.50
2023-05-04T20:17:11.113Z,101531.84
2023-05-04T20:19:38.758Z,101531.34
2023-05-04T20:22:05.151Z,101526.69
2023-05-04T20:24:31.576Z,101519.31
2023-05-04T20:26:57.981Z,101528.09
2023-05-04T20:29:24.436Z,101520.41
2023-05-04T20:31:50.969Z,101519.88
2023-05-04T20:34:19.142Z,101517.97
2023-05-04T20:36:46.861Z,101511.97
2023-05-04T20:39:13.449Z,101514.44
2023-05-04T20:41:40.642Z,101509.53
2023-05-04T20:44:07.072Z,101508.16
2023-05-04T20:46:34.740Z,101503.47
2023-05-04T20:49:02.887Z,101500.19
2023-05-04T20:51:29.451Z,101499.38
2023-05-04T20:53:55.805Z,101496.41
2023-05-04T20:56:22.565Z,101501.91
2023-05-04T20:58:48.918Z,101491.22
2023-05-04T21:01:15.647Z,101481.63
2023-05-04T21:03:42.278Z,101484.91
2023-05-04T21:06:08.822Z,101476.69
2023-05-04T21:08:35.376Z,101474.78
2023-05-04T21:11:01.825Z,101473.97
2023-05-04T21:13:28.315Z,101475.63
2023-05-04T21:15:54.716Z,101470.69
2023-05-04T21:18:21.291Z,101472.31
2023-05-04T21:20:47.858Z,101459.44
2023-05-04T21:23:14.428Z,101466.81
2023-05-04T21:25:40.861Z,101466.00
2023-05-04T21:28:07.323Z,101464.06
2023-05-04T21:30:33.792Z,101468.16
2023-05-04T21:33:00.707Z,101462.94
2023-05-04T21:35:30.822Z,101462.31
2023-05-04T21:37:58.528Z,101459.47
2023-05-04T21:40:28.688Z,101458.91
2023-05-04T21:42:55.125Z,101457.78
2023-05-04T21:45:21.604Z,101451.78
2023-05-04T21:47:48.419Z,101443.03
2023-05-04T21:50:15.170Z,101443.03
2023-05-04T21:52:41.533Z,101446.03
2023-05-04T21:55:07.931Z,101448.22
2023-05-04T21:57:34.379Z,101443.06
2023-05-04T22:00:00.775Z,101451.28
2023-05-04T22:02:27.102Z,101447.47
2023-05-04T22:04:53.479Z,101447.75
2023-05-04T22:07:19.843Z,101446.94
2023-05-04T22:09:46.218Z,101439.81
2023-05-04T22:12:12.841Z,101437.88
2023-05-04T22:14:41.611Z,101438.44
2023-05-04T22:17:08.836Z,101440.34
2023-05-04T22:19:35.259Z,101432.72
2023-05-04T22:22:01.894Z,101432.97
2023-05-04T22:24:35.624Z,101432.41
2023-05-04T22:27:03.340Z,101430.47
2023-05-04T22:29:29.665Z,101438.66
2023-05-04T22:31:55.976Z,101433.69
2023-05-04T22:34:22.291Z,101433.66
2023-05-04T22:36:48.806Z,101446.38
2023-05-04T22:39:15.700Z,101440.19
2023-05-04T22:41:42.097Z,101434.03
2023-05-04T22:44:09.062Z,101436.97
2023-05-04T22:46:35.461Z,101432.25
2023-05-04T22:49:01.920Z,101427.50
2023-05-04T22:51:28.472Z,101430.13
2023-05-04T22:53:54.854Z,101423.03
2023-05-04T22:56:21.234Z,101428.72
2023-05-04T22:58:47.543Z,101428.50
2023-05-04T23:01:13.963Z,101424.16
2023-05-04T23:03:40.552Z,101428.56
2023-05-04T23:06:08.611Z,101433.56
2023-05-04T23:08:34.999Z,101435.69
2023-05-04T23:11:01.394Z,101428.50
2023-05-04T23:13:27.802Z,101434.41
2023-05-04T23:15:54.320Z,101445.25
2023-05-04T23:18:20.696Z,101442.69
2023-05-04T23:20:47.135Z,101439.06
2023-05-04T23:23:13.479Z,101435.59
2023-05-04T23:25:39.782Z,101437.59
2023-05-04T23:28:06.197Z,101445.25
2023-05-04T23:30:32.504Z,101446.72
2023-05-04T23:32:59.104Z,101447.94
2023-05-04T23:35:26.938Z,101454.31
2023-05-04T23:37:53.450Z,101462.44
2023-05-04T23:40:20.037Z,101461.97
2023-05-04T23:42:50.390Z,101466.94
2023-05-04T23:45:16.893Z,101463.72
2023-05-04T23:47:43.320Z,101457.31
2023-05-04T23:50:10.244Z,101445.94
2023-05-04T23:52:36.879Z,101457.72
2023-05-04T23:55:03.637Z,101463.53
2023-05-04T23:57:30.084Z,101457.19
2023-05-04T23:59:56.423Z,101466.97
